Flight Track Log - Related Links

Times and Time Zones

All times are in EDT time to prevent confusion due to time zone crossing. See the UAL395 flight status page for this flight to view local times or setup timezone preferences in your user account.

Time Position Orientation Groundspeed Altitude Reporting Facility
EDT Latitude Longitude Course Direction KTS MPH feet Rate Location/Type
Tue 02:37:31 PM 38.9500 -77.5167 270° West 164 189 1,500  Level Potomac TRACON
Tue 02:38:25 PM 38.9333 -77.5667 247° West 216 249 3,100 2,473 Climbing Potomac TRACON
Tue 02:39:59 PM 38.8947 -77.7039 250° West 257 296 7,600 2,903 Climbing Washington Center
Tue 02:40:00 PM 38.8922 -78.0021 288° West  Level FlightAware Approximate
Tue 02:41:00 PM 38.9263 -78.1386 288° West  Level FlightAware Approximate
Tue 02:41:00 PM 38.8825 -77.8078 261° West 276 318 10,600  Level Washington Center
Tue 02:42:00 PM 38.9500 -78.2744 270° West  Level FlightAware Approximate
Tue 02:42:00 PM 38.8642 -77.9058 257° West 287 330 13,700  Level Washington Center
Tue 02:42:58 PM 38.8392 -78.0064 252° West 297 342 16,500 2,269 Climbing Washington Center
Tue 02:43:59 PM 38.8872 -78.0958 305° West 283 326 18,200 1,770 Climbing Washington Center
Tue 02:45:00 PM 38.9336 -78.1775 306° West 289 333 20,100 1,884 Climbing Washington Center
Tue 02:46:00 PM 38.9644 -78.2853 290° West 306 352 22,000 1,983 Climbing Washington Center
Tue 02:46:58 PM 38.9681 -78.4083 272° West 316 364 24,000 1,462 Climbing Washington Center
Tue 02:47:59 PM 38.9711 -78.5339 272° West 342 394 24,900 900 Climbing Washington Center
Tue 02:48:58 PM 38.9761 -78.6731 273° West 372 428 25,800 1,008 Climbing Washington Center
Tue 02:49:58 PM 38.9786 -78.8172 271° West 395 455 26,900 700 Climbing Washington Center
Tue 02:50:58 PM 38.9847 -78.9697 273° West 415 478 27,200 942 Climbing Washington Center
Tue 02:51:59 PM 38.9867 -79.1247 271° West 427 491 28,800 1,450 Climbing Washington Center
Tue 02:52:58 PM 38.9922 -79.2828 273° West 439 505 30,100 1,150 Climbing Washington Center
Tue 02:53:59 PM 38.9956 -79.4431 272° West 445 512 31,100 1,289 Climbing Washington Center
Tue 02:54:59 PM 39.0000 -79.6250 272° West 464 534 32,700 1,041 Climbing Washington Center
Tue 02:56:00 PM 39.0028 -79.7881 271° West 464 534 33,200 874 Climbing Washington Center
Tue 02:56:42 PM 39.0011 -79.8958 269° West 447 514 34,200 1,269 Climbing Indianapolis Center
Tue 02:57:44 PM 39.0042 -80.0503 272° West 447 514 35,400 1,113 Climbing Indianapolis Center
Tue 02:58:46 PM 39.0067 -80.2203 271° West 441 507 36,500 1,113 Climbing Indianapolis Center
Tue 02:59:48 PM 39.0089 -80.3783 271° West 442 509 37,700 672 Climbing Indianapolis Center
Tue 03:00:51 PM 39.0117 -80.5339 271° West 438 504 37,900 144 Climbing Indianapolis Center
Tue 03:01:53 PM 39.0142 -80.6928 271° West 444 511 38,000 48 Climbing Indianapolis Center
Tue 03:02:55 PM 39.0356 -80.8478 280° West 446 513 38,000 -48 Level Indianapolis Center
Tue 03:03:57 PM 39.1017 -81.0219 296° West 456 525 37,900  Descending Indianapolis Center
Tue 03:04:59 PM 39.1614 -81.1658 298° West 460 529 38,000  Climbing Indianapolis Center
Tue 03:06:01 PM 39.2189 -81.3069 298° West 452 520 37,900 -48 Descending Indianapolis Center
Tue 03:07:03 PM 39.2769 -81.4494 298° West 452 520 37,900 48 Level Indianapolis Center
Tue 03:08:05 PM 39.3353 -81.5947 297° West 455 524 38,000 48 Climbing Indianapolis Center
Tue 03:09:07 PM 39.4053 -81.7681 298° West 456 525 38,000 -48 Level Indianapolis Center
Tue 03:10:09 PM 39.4642 -81.9128 298° West 457 526 37,900  Descending Indianapolis Center
Tue 03:11:11 PM 39.4953 -82.0650 285° West 439 505 38,000  Climbing Indianapolis Center
Tue 03:12:13 PM 39.5078 -82.2394 275° West 441 507 37,900 -48 Descending Indianapolis Center
Tue 03:13:15 PM 39.5194 -82.3994 275° West 443 510 37,900  Level Indianapolis Center
Tue 03:14:17 PM 39.5333 -82.5592 276° West 442 509 37,900  Level Indianapolis Center
Tue 03:15:19 PM 39.5472 -82.7169 277° West 439 505 37,900  Level Indianapolis Center
Tue 03:16:21 PM 39.5597 -82.8775 276° West 442 509 37,900  Level Indianapolis Center
Tue 03:17:23 PM 39.5733 -83.0383 276° West 443 510 37,900 48 Level Indianapolis Center
Tue 03:18:25 PM 39.5869 -83.1992 276° West 444 511 38,000  Climbing Indianapolis Center
Tue 03:19:28 PM 39.5953 -83.3603 274° West 441 507 37,900 -48 Descending Indianapolis Center
Tue 03:20:30 PM 39.5961 -83.5514 270° West 443 510 37,900  Level Indianapolis Center
Tue 03:21:32 PM 39.5969 -83.7156 270° West 445 512 37,900  Level Indianapolis Center
Tue 03:22:34 PM 39.5975 -83.8792 270° West 447 514 37,900  Level Indianapolis Center
Tue 03:23:36 PM 39.5961 -84.0425 269° West 448 516 37,900  Level Indianapolis Center
Tue 03:24:38 PM 39.6111 -84.2047 277° West 446 513 37,900  Level Indianapolis Center
Tue 03:25:40 PM 39.6650 -84.3528 295° West 448 516 37,900  Level Indianapolis Center
Tue 03:26:42 PM 39.7461 -84.4797 310° West 448 516 37,900 -435 Level Indianapolis Center
Tue 03:27:44 PM 39.8628 -84.5533 334° Northwest 460 529 37,000 -1,065 Descending Indianapolis Center
Tue 03:28:46 PM 39.9781 -84.6208 336° Northwest 452 520 35,700 -1,452 Descending Indianapolis Center
Tue 03:29:48 PM 40.1131 -84.6983 336° Northwest 450 518 34,000 -871 Descending Indianapolis Center
Tue 03:30:50 PM 40.2308 -84.7636 337° Northwest 453 521 33,900 -48 Descending Indianapolis Center
Tue 03:31:52 PM 40.3450 -84.8278 337° Northwest 445 512 33,900  Level Indianapolis Center
Tue 03:32:54 PM 40.4608 -84.8908 338° Northwest 444 511 33,900  Level Indianapolis Center
Tue 03:33:56 PM 40.5658 -84.9517 336° Northwest 441 507 33,900 -242 Level Indianapolis Center
Tue 03:34:58 PM 40.6619 -85.0464 323° Northwest 445 512 33,400 -1,403 Descending Indianapolis Center
Tue 03:36:00 PM 40.7536 -85.1892 310° West 431 496 31,000 -1,680 Descending Indianapolis Center
Tue 03:37:03 PM 40.8331 -85.3131 310° West 443 510 29,900 -2,208 Descending Indianapolis Center
Tue 03:38:05 PM 40.9106 -85.4383 309° West 443 510 26,400 -2,371 Descending Indianapolis Center
Tue 03:39:07 PM 40.9892 -85.5628 310° West 442 509 25,000 -726 Descending Indianapolis Center
Tue 03:40:09 PM 41.0631 -85.6811 310° West 423 487 24,900 -48 Descending Indianapolis Center
Tue 03:41:11 PM 41.1525 -85.8233 310° West 421 484 24,900 48 Level Indianapolis Center
Tue 03:42:13 PM 41.2272 -85.9436 310° West 424 488 25,000 -339 Climbing Indianapolis Center
Tue 03:43:15 PM 41.2878 -86.0742 302° West 421 484 24,200 -1,016 Descending Indianapolis Center
Tue 03:44:17 PM 41.3047 -86.2178 279° West 398 458 22,900 -968 Descending Indianapolis Center
Tue 03:45:19 PM 41.3100 -86.3633 273° West 396 456 22,200 -1,280 Descending Indianapolis Center
Tue 03:46:47 PM 41.3192 -86.5756 273° West 376 433 19,700 -1,600 Descending Chicago Center
Tue 03:47:49 PM 41.3947 -86.6853 313° West 400 460 18,200 -1,839 Descending Chicago Center
Tue 03:48:51 PM 41.5031 -86.7594 333° Northwest 386 444 15,900 -2,468 Descending Chicago Center
Tue 03:49:53 PM 41.5983 -86.7886 347° North 365 420 13,100 -1,887 Descending Chicago Center
Tue 03:50:55 PM 41.6978 -86.7992 355° North 361 415 12,000 -532 Descending Chicago Center
Tue 03:51:57 PM 41.7953 -86.8133 354° North 357 411 12,000 -871 Level Chicago Center
Tue 03:52:59 PM 41.8856 -86.8514 343° North 352 405 10,200 -968 Descending Chicago Center
Tue 03:54:01 PM 41.9367 -86.9750 299° West 318 366 10,000 -774 Descending Chicago Center
Tue 03:55:03 PM 41.9731 -87.0611 300° West 277 319 8,600 -1,355 Descending Chicago Center
Tue 03:56:05 PM 41.9814 -87.1564 277° West 266 306 7,200 -816 Descending Chicago Center
Tue 03:57:08 PM 41.9836 -87.2467 272° West 245 282 6,900 -144 Descending Chicago Center
Tue 03:58:10 PM 41.9833 -87.3408 270° West 215 247 6,900  Level Chicago Center
Tue 03:59:12 PM 41.9822 -87.4203 269° West 215 247 6,900 -242 Level Chicago Center
Tue 04:00:14 PM 41.9833 -87.4878 271° West 189 217 6,400 -726 Descending Chicago Center
Tue 04:01:16 PM 41.9828 -87.5478 269° West 167 192 5,400 -871 Descending Chicago Center
Tue 04:02:18 PM 41.9828 -87.6100 270° West 167 192 4,600 -919 Descending Chicago Center
Tue 04:03:20 PM 41.9839 -87.6844 271° West 169 194 3,500 -1,065 Descending Chicago Center

Login

Don't have an account? Register now (free) for customized features, flight alerts, and more!